sensor_id;sensor_type;location;lat;lon;timestamp;P1;durP1;ratioP1;P2;durP2;ratioP2
52620;SDS011;38515;53.160;6.990;2022-07-09T00:01:02;10.32;;;5.72;;
52620;SDS011;38515;53.160;6.990;2022-07-09T00:03:28;7.65;;;6.15;;
52620;SDS011;38515;53.160;6.990;2022-07-09T00:05:54;7.45;;;5.22;;
52620;SDS011;38515;53.160;6.990;2022-07-09T00:08:20;8.45;;;6.13;;
52620;SDS011;38515;53.160;6.990;2022-07-09T00:10:46;8.40;;;5.85;;
52620;SDS011;38515;53.160;6.990;2022-07-09T00:13:12;8.13;;;6.50;;
52620;SDS011;38515;53.160;6.990;2022-07-09T00:15:38;7.78;;;5.65;;
52620;SDS011;38515;53.160;6.990;2022-07-09T00:18:04;15.88;;;6.55;;
52620;SDS011;38515;53.160;6.990;2022-07-09T00:20:30;12.57;;;7.32;;
52620;SDS011;38515;53.160;6.990;2022-07-09T00:22:56;9.48;;;6.22;;
52620;SDS011;38515;53.160;6.990;2022-07-09T00:25:22;12.23;;;6.22;;
52620;SDS011;38515;53.160;6.990;2022-07-09T00:27:48;9.95;;;6.70;;
52620;SDS011;38515;53.160;6.990;2022-07-09T00:30:13;8.35;;;6.13;;
52620;SDS011;38515;53.160;6.990;2022-07-09T00:32:39;11.98;;;6.75;;
52620;SDS011;38515;53.160;6.990;2022-07-09T00:35:06;9.68;;;7.47;;
52620;SDS011;38515;53.160;6.990;2022-07-09T00:37:32;13.20;;;7.30;;
52620;SDS011;38515;53.160;6.990;2022-07-09T00:39:57;11.15;;;6.95;;
52620;SDS011;38515;53.160;6.990;2022-07-09T00:42:23;10.57;;;6.38;;
52620;SDS011;38515;53.160;6.990;2022-07-09T00:44:50;8.52;;;7.13;;
52620;SDS011;38515;53.160;6.990;2022-07-09T00:47:16;9.32;;;5.97;;
52620;SDS011;38515;53.160;6.990;2022-07-09T00:49:42;10.30;;;6.90;;
52620;SDS011;38515;53.160;6.990;2022-07-09T00:52:12;10.95;;;7.90;;
52620;SDS011;38515;53.160;6.990;2022-07-09T00:54:39;10.85;;;6.40;;
52620;SDS011;38515;53.160;6.990;2022-07-09T00:57:07;10.10;;;6.22;;
52620;SDS011;38515;53.160;6.990;2022-07-09T00:59:34;14.25;;;6.97;;
52620;SDS011;38515;53.160;6.990;2022-07-09T01:02:01;11.48;;;5.93;;
52620;SDS011;38515;53.160;6.990;2022-07-09T01:04:28;8.00;;;6.18;;
52620;SDS011;38515;53.160;6.990;2022-07-09T01:06:54;9.10;;;6.60;;
52620;SDS011;38515;53.160;6.990;2022-07-09T01:09:23;12.45;;;7.35;;
52620;SDS011;38515;53.160;6.990;2022-07-09T01:11:49;9.30;;;6.97;;
52620;SDS011;38515;53.160;6.990;2022-07-09T01:14:15;17.17;;;8.77;;
52620;SDS011;38515;53.160;6.990;2022-07-09T01:16:41;12.18;;;7.35;;
52620;SDS011;38515;53.160;6.990;2022-07-09T01:19:07;14.65;;;8.00;;
52620;SDS011;38515;53.160;6.990;2022-07-09T01:21:33;13.00;;;7.25;;
52620;SDS011;38515;53.160;6.990;2022-07-09T01:23:59;13.88;;;7.47;;
52620;SDS011;38515;53.160;6.990;2022-07-09T01:26:26;16.10;;;8.40;;
52620;SDS011;38515;53.160;6.990;2022-07-09T01:28:52;13.90;;;8.00;;
52620;SDS011;38515;53.160;6.990;2022-07-09T01:31:18;14.65;;;8.23;;
52620;SDS011;38515;53.160;6.990;2022-07-09T01:33:45;12.48;;;8.95;;
52620;SDS011;38515;53.160;6.990;2022-07-09T01:36:11;10.50;;;8.27;;
52620;SDS011;38515;53.160;6.990;2022-07-09T01:38:37;14.48;;;9.23;;
52620;SDS011;38515;53.160;6.990;2022-07-09T01:41:03;17.42;;;9.40;;
52620;SDS011;38515;53.160;6.990;2022-07-09T01:43:29;15.60;;;9.43;;
52620;SDS011;38515;53.160;6.990;2022-07-09T01:45:58;18.25;;;10.25;;
52620;SDS011;38515;53.160;6.990;2022-07-09T01:48:25;16.17;;;9.77;;
52620;SDS011;38515;53.160;6.990;2022-07-09T01:50:52;17.02;;;10.70;;
52620;SDS011;38515;53.160;6.990;2022-07-09T01:53:19;20.45;;;11.65;;
52620;SDS011;38515;53.160;6.990;2022-07-09T01:55:45;19.20;;;11.65;;
52620;SDS011;38515;53.160;6.990;2022-07-09T01:58:10;17.40;;;12.23;;
52620;SDS011;38515;53.160;6.990;2022-07-09T02:00:36;20.58;;;12.35;;
52620;SDS011;38515;53.160;6.990;2022-07-09T02:03:02;14.18;;;10.57;;
52620;SDS011;38515;53.160;6.990;2022-07-09T02:05:28;21.88;;;12.25;;
52620;SDS011;38515;53.160;6.990;2022-07-09T02:07:54;21.85;;;11.90;;
52620;SDS011;38515;53.160;6.990;2022-07-09T02:10:20;20.05;;;11.73;;
52620;SDS011;38515;53.160;6.990;2022-07-09T02:12:46;24.23;;;14.88;;
52620;SDS011;38515;53.160;6.990;2022-07-09T02:15:12;20.98;;;12.70;;
52620;SDS011;38515;53.160;6.990;2022-07-09T02:17:38;20.75;;;13.48;;
52620;SDS011;38515;53.160;6.990;2022-07-09T02:20:05;20.15;;;13.88;;
52620;SDS011;38515;53.160;6.990;2022-07-09T02:22:31;25.98;;;14.93;;
52620;SDS011;38515;53.160;6.990;2022-07-09T02:24:57;27.52;;;15.98;;
52620;SDS011;38515;53.160;6.990;2022-07-09T02:27:22;23.92;;;15.30;;
52620;SDS011;38515;53.160;6.990;2022-07-09T02:29:48;22.83;;;14.65;;
52620;SDS011;38515;53.160;6.990;2022-07-09T02:32:14;23.70;;;14.82;;
52620;SDS011;38515;53.160;6.990;2022-07-09T02:34:40;19.08;;;13.50;;
52620;SDS011;38515;53.160;6.990;2022-07-09T02:37:06;22.95;;;13.73;;
52620;SDS011;38515;53.160;6.990;2022-07-09T02:39:33;25.75;;;13.75;;
52620;SDS011;38515;53.160;6.990;2022-07-09T02:41:59;23.60;;;14.48;;
52620;SDS011;38515;53.160;6.990;2022-07-09T02:44:24;20.38;;;13.75;;
52620;SDS011;38515;53.160;6.990;2022-07-09T02:46:51;24.45;;;14.32;;
52620;SDS011;38515;53.160;6.990;2022-07-09T02:49:17;26.88;;;14.27;;
52620;SDS011;38515;53.160;6.990;2022-07-09T02:51:43;24.08;;;15.82;;
52620;SDS011;38515;53.160;6.990;2022-07-09T02:54:09;23.80;;;15.55;;
52620;SDS011;38515;53.160;6.990;2022-07-09T02:56:35;25.08;;;15.02;;
52620;SDS011;38515;53.160;6.990;2022-07-09T02:59:01;21.92;;;13.32;;
52620;SDS011;38515;53.160;6.990;2022-07-09T03:01:28;18.60;;;13.88;;
52620;SDS011;38515;53.160;6.990;2022-07-09T03:03:53;23.23;;;13.88;;
52620;SDS011;38515;53.160;6.990;2022-07-09T03:06:20;22.70;;;13.82;;
52620;SDS011;38515;53.160;6.990;2022-07-09T03:08:45;23.63;;;14.55;;
52620;SDS011;38515;53.160;6.990;2022-07-09T03:11:11;23.20;;;14.70;;
52620;SDS011;38515;53.160;6.990;2022-07-09T03:13:37;21.00;;;14.57;;
52620;SDS011;38515;53.160;6.990;2022-07-09T03:16:03;26.83;;;14.00;;
52620;SDS011;38515;53.160;6.990;2022-07-09T03:18:31;28.77;;;11.80;;
52620;SDS011;38515;53.160;6.990;2022-07-09T03:20:57;21.83;;;12.82;;
52620;SDS011;38515;53.160;6.990;2022-07-09T03:23:22;23.77;;;10.82;;
52620;SDS011;38515;53.160;6.990;2022-07-09T03:25:48;18.00;;;12.05;;
52620;SDS011;38515;53.160;6.990;2022-07-09T03:28:14;24.05;;;12.20;;
52620;SDS011;38515;53.160;6.990;2022-07-09T03:30:40;26.88;;;12.93;;
52620;SDS011;38515;53.160;6.990;2022-07-09T03:33:06;20.73;;;11.13;;
52620;SDS011;38515;53.160;6.990;2022-07-09T03:35:32;21.27;;;11.77;;
52620;SDS011;38515;53.160;6.990;2022-07-09T03:37:57;23.23;;;12.70;;
52620;SDS011;38515;53.160;6.990;2022-07-09T03:40:24;19.98;;;12.20;;
52620;SDS011;38515;53.160;6.990;2022-07-09T03:42:49;20.75;;;12.38;;
52620;SDS011;38515;53.160;6.990;2022-07-09T03:45:15;32.67;;;15.13;;
52620;SDS011;38515;53.160;6.990;2022-07-09T03:47:41;24.77;;;12.88;;
52620;SDS011;38515;53.160;6.990;2022-07-09T03:50:07;18.83;;;10.80;;
52620;SDS011;38515;53.160;6.990;2022-07-09T03:52:33;19.27;;;10.88;;
52620;SDS011;38515;53.160;6.990;2022-07-09T03:54:59;18.80;;;9.55;;
52620;SDS011;38515;53.160;6.990;2022-07-09T03:57:25;16.60;;;11.18;;
52620;SDS011;38515;53.160;6.990;2022-07-09T03:59:51;21.08;;;11.95;;
52620;SDS011;38515;53.160;6.990;2022-07-09T04:02:17;18.65;;;10.98;;
52620;SDS011;38515;53.160;6.990;2022-07-09T04:04:43;16.77;;;12.07;;
52620;SDS011;38515;53.160;6.990;2022-07-09T04:07:09;21.00;;;11.98;;
52620;SDS011;38515;53.160;6.990;2022-07-09T04:09:35;17.77;;;10.60;;
52620;SDS011;38515;53.160;6.990;2022-07-09T04:12:02;25.25;;;11.63;;
52620;SDS011;38515;53.160;6.990;2022-07-09T04:14:28;23.65;;;12.60;;
52620;SDS011;38515;53.160;6.990;2022-07-09T04:16:54;25.52;;;12.80;;
52620;SDS011;38515;53.160;6.990;2022-07-09T04:19:20;20.67;;;11.88;;
52620;SDS011;38515;53.160;6.990;2022-07-09T04:21:46;20.90;;;12.73;;
52620;SDS011;38515;53.160;6.990;2022-07-09T04:24:12;22.58;;;11.82;;
52620;SDS011;38515;53.160;6.990;2022-07-09T04:26:41;17.40;;;12.80;;
52620;SDS011;38515;53.160;6.990;2022-07-09T04:29:07;18.17;;;12.13;;
52620;SDS011;38515;53.160;6.990;2022-07-09T04:31:33;21.58;;;11.80;;
52620;SDS011;38515;53.160;6.990;2022-07-09T04:33:59;26.50;;;11.55;;
52620;SDS011;38515;53.160;6.990;2022-07-09T04:36:25;16.52;;;10.20;;
52620;SDS011;38515;53.160;6.990;2022-07-09T04:38:53;17.63;;;12.00;;
52620;SDS011;38515;53.160;6.990;2022-07-09T04:41:20;17.00;;;11.38;;
52620;SDS011;38515;53.160;6.990;2022-07-09T04:43:46;22.98;;;12.95;;
52620;SDS011;38515;53.160;6.990;2022-07-09T04:46:12;19.02;;;12.48;;
52620;SDS011;38515;53.160;6.990;2022-07-09T04:48:39;16.42;;;11.25;;
52620;SDS011;38515;53.160;6.990;2022-07-09T04:51:05;16.52;;;11.63;;
52620;SDS011;38515;53.160;6.990;2022-07-09T04:53:30;18.98;;;10.90;;
52620;SDS011;38515;53.160;6.990;2022-07-09T04:55:56;23.60;;;11.77;;
52620;SDS011;38515;53.160;6.990;2022-07-09T04:58:22;22.38;;;11.15;;
52620;SDS011;38515;53.160;6.990;2022-07-09T05:00:48;18.98;;;10.63;;
52620;SDS011;38515;53.160;6.990;2022-07-09T05:03:14;13.95;;;10.27;;
52620;SDS011;38515;53.160;6.990;2022-07-09T05:05:40;18.98;;;10.77;;
52620;SDS011;38515;53.160;6.990;2022-07-09T05:08:06;15.60;;;10.57;;
52620;SDS011;38515;53.160;6.990;2022-07-09T05:10:32;16.55;;;10.38;;
52620;SDS011;38515;53.160;6.990;2022-07-09T05:12:58;15.80;;;10.82;;
52620;SDS011;38515;53.160;6.990;2022-07-09T05:15:23;20.98;;;11.00;;
52620;SDS011;38515;53.160;6.990;2022-07-09T05:17:49;16.30;;;9.65;;
52620;SDS011;38515;53.160;6.990;2022-07-09T05:20:15;14.63;;;9.50;;
52620;SDS011;38515;53.160;6.990;2022-07-09T05:22:42;16.92;;;9.18;;
52620;SDS011;38515;53.160;6.990;2022-07-09T05:25:08;19.00;;;10.40;;
52620;SDS011;38515;53.160;6.990;2022-07-09T05:27:41;15.05;;;10.73;;
52620;SDS011;38515;53.160;6.990;2022-07-09T05:30:08;14.23;;;9.30;;
52620;SDS011;38515;53.160;6.990;2022-07-09T05:32:34;15.80;;;9.60;;
52620;SDS011;38515;53.160;6.990;2022-07-09T05:35:00;15.90;;;8.93;;
52620;SDS011;38515;53.160;6.990;2022-07-09T05:37:26;12.30;;;8.55;;
52620;SDS011;38515;53.160;6.990;2022-07-09T05:39:52;12.40;;;8.35;;
52620;SDS011;38515;53.160;6.990;2022-07-09T05:42:21;13.20;;;8.80;;
52620;SDS011;38515;53.160;6.990;2022-07-09T05:44:47;14.48;;;8.38;;
52620;SDS011;38515;53.160;6.990;2022-07-09T05:47:12;13.93;;;7.85;;
52620;SDS011;38515;53.160;6.990;2022-07-09T05:49:40;13.75;;;8.63;;
52620;SDS011;38515;53.160;6.990;2022-07-09T05:52:06;12.65;;;8.80;;
52620;SDS011;38515;53.160;6.990;2022-07-09T05:54:32;11.77;;;8.38;;
52620;SDS011;38515;53.160;6.990;2022-07-09T05:56:58;15.93;;;7.28;;
52620;SDS011;38515;53.160;6.990;2022-07-09T05:59:24;19.70;;;8.65;;
52620;SDS011;38515;53.160;6.990;2022-07-09T06:01:50;12.45;;;7.45;;
52620;SDS011;38515;53.160;6.990;2022-07-09T06:04:15;12.45;;;7.35;;
52620;SDS011;38515;53.160;6.990;2022-07-09T06:06:41;14.10;;;7.18;;
52620;SDS011;38515;53.160;6.990;2022-07-09T06:09:07;12.32;;;7.53;;
52620;SDS011;38515;53.160;6.990;2022-07-09T06:11:33;9.77;;;7.10;;
52620;SDS011;38515;53.160;6.990;2022-07-09T06:13:59;13.57;;;7.82;;
52620;SDS011;38515;53.160;6.990;2022-07-09T06:16:25;12.77;;;8.32;;
52620;SDS011;38515;53.160;6.990;2022-07-09T06:18:51;10.35;;;7.53;;
52620;SDS011;38515;53.160;6.990;2022-07-09T06:21:17;8.85;;;6.05;;
52620;SDS011;38515;53.160;6.990;2022-07-09T06:23:42;13.13;;;6.40;;
52620;SDS011;38515;53.160;6.990;2022-07-09T06:26:09;11.75;;;6.38;;
52620;SDS011;38515;53.160;6.990;2022-07-09T06:28:38;9.98;;;6.13;;
52620;SDS011;38515;53.160;6.990;2022-07-09T06:31:04;13.80;;;6.70;;
52620;SDS011;38515;53.160;6.990;2022-07-09T06:33:30;12.35;;;6.65;;
52620;SDS011;38515;53.160;6.990;2022-07-09T06:35:56;10.50;;;5.65;;
52620;SDS011;38515;53.160;6.990;2022-07-09T06:38:22;10.90;;;4.93;;
52620;SDS011;38515;53.160;6.990;2022-07-09T06:40:48;9.93;;;4.88;;
52620;SDS011;38515;53.160;6.990;2022-07-09T06:43:13;6.63;;;5.00;;
52620;SDS011;38515;53.160;6.990;2022-07-09T06:45:39;9.13;;;5.15;;
52620;SDS011;38515;53.160;6.990;2022-07-09T06:48:05;14.45;;;4.45;;
52620;SDS011;38515;53.160;6.990;2022-07-09T06:50:31;9.82;;;5.32;;
52620;SDS011;38515;53.160;6.990;2022-07-09T06:52:57;8.57;;;4.95;;
52620;SDS011;38515;53.160;6.990;2022-07-09T06:55:23;6.63;;;4.68;;
52620;SDS011;38515;53.160;6.990;2022-07-09T06:57:48;9.68;;;4.78;;
52620;SDS011;38515;53.160;6.990;2022-07-09T07:00:14;8.35;;;4.40;;
52620;SDS011;38515;53.160;6.990;2022-07-09T07:02:40;8.95;;;4.57;;
52620;SDS011;38515;53.160;6.990;2022-07-09T07:05:06;7.63;;;4.78;;
52620;SDS011;38515;53.160;6.990;2022-07-09T07:07:32;7.80;;;5.80;;
52620;SDS011;38515;53.160;6.990;2022-07-09T07:09:59;7.82;;;4.13;;
52620;SDS011;38515;53.160;6.990;2022-07-09T07:12:25;11.55;;;4.78;;
52620;SDS011;38515;53.160;6.990;2022-07-09T07:14:51;10.70;;;5.15;;
52620;SDS011;38515;53.160;6.990;2022-07-09T07:17:19;7.93;;;4.90;;
52620;SDS011;38515;53.160;6.990;2022-07-09T07:19:45;5.97;;;3.83;;
52620;SDS011;38515;53.160;6.990;2022-07-09T07:22:11;5.22;;;3.65;;
52620;SDS011;38515;53.160;6.990;2022-07-09T07:24:37;7.22;;;4.22;;
52620;SDS011;38515;53.160;6.990;2022-07-09T07:27:03;6.40;;;4.22;;
52620;SDS011;38515;53.160;6.990;2022-07-09T07:29:29;11.43;;;4.43;;
52620;SDS011;38515;53.160;6.990;2022-07-09T07:31:56;8.45;;;4.47;;
52620;SDS011;38515;53.160;6.990;2022-07-09T07:34:23;7.22;;;3.83;;
52620;SDS011;38515;53.160;6.990;2022-07-09T07:36:50;14.73;;;3.90;;
52620;SDS011;38515;53.160;6.990;2022-07-09T07:39:17;6.20;;;3.85;;
52620;SDS011;38515;53.160;6.990;2022-07-09T07:41:47;7.68;;;3.85;;
52620;SDS011;38515;53.160;6.990;2022-07-09T07:44:13;6.47;;;3.30;;
52620;SDS011;38515;53.160;6.990;2022-07-09T07:46:39;7.07;;;3.55;;
52620;SDS011;38515;53.160;6.990;2022-07-09T07:49:06;6.60;;;3.03;;
52620;SDS011;38515;53.160;6.990;2022-07-09T07:51:32;6.28;;;3.47;;
52620;SDS011;38515;53.160;6.990;2022-07-09T07:53:58;6.30;;;3.22;;
52620;SDS011;38515;53.160;6.990;2022-07-09T07:56:24;4.78;;;3.00;;
52620;SDS011;38515;53.160;6.990;2022-07-09T07:58:50;4.30;;;3.25;;
52620;SDS011;38515;53.160;6.990;2022-07-09T08:01:16;7.55;;;3.03;;
52620;SDS011;38515;53.160;6.990;2022-07-09T08:03:41;4.10;;;2.92;;
52620;SDS011;38515;53.160;6.990;2022-07-09T08:06:08;5.72;;;3.15;;
52620;SDS011;38515;53.160;6.990;2022-07-09T08:08:34;5.55;;;2.58;;
52620;SDS011;38515;53.160;6.990;2022-07-09T08:11:00;5.20;;;2.78;;
52620;SDS011;38515;53.160;6.990;2022-07-09T08:13:27;9.75;;;3.53;;
52620;SDS011;38515;53.160;6.990;2022-07-09T08:15:54;8.32;;;2.25;;
52620;SDS011;38515;53.160;6.990;2022-07-09T08:18:20;5.45;;;2.35;;
52620;SDS011;38515;53.160;6.990;2022-07-09T08:20:46;4.30;;;2.33;;
52620;SDS011;38515;53.160;6.990;2022-07-09T08:23:14;7.32;;;2.97;;
52620;SDS011;38515;53.160;6.990;2022-07-09T08:25:40;3.30;;;2.58;;
52620;SDS011;38515;53.160;6.990;2022-07-09T08:28:06;4.22;;;2.05;;
52620;SDS011;38515;53.160;6.990;2022-07-09T08:30:32;5.13;;;2.60;;
52620;SDS011;38515;53.160;6.990;2022-07-09T08:32:58;9.45;;;2.40;;
52620;SDS011;38515;53.160;6.990;2022-07-09T08:35:24;4.68;;;2.00;;
52620;SDS011;38515;53.160;6.990;2022-07-09T08:37:51;7.70;;;2.33;;
52620;SDS011;38515;53.160;6.990;2022-07-09T08:40:18;6.65;;;2.33;;
52620;SDS011;38515;53.160;6.990;2022-07-09T08:42:44;4.88;;;1.95;;
52620;SDS011;38515;53.160;6.990;2022-07-09T08:45:11;3.58;;;1.80;;
52620;SDS011;38515;53.160;6.990;2022-07-09T08:47:38;7.57;;;2.58;;
52620;SDS011;38515;53.160;6.990;2022-07-09T08:50:05;5.30;;;2.13;;
52620;SDS011;38515;53.160;6.990;2022-07-09T08:52:32;5.10;;;2.45;;
52620;SDS011;38515;53.160;6.990;2022-07-09T08:54:58;5.22;;;2.20;;
52620;SDS011;38515;53.160;6.990;2022-07-09T08:57:24;3.88;;;1.92;;
52620;SDS011;38515;53.160;6.990;2022-07-09T08:59:50;6.05;;;2.53;;
52620;SDS011;38515;53.160;6.990;2022-07-09T09:02:16;8.95;;;2.80;;
52620;SDS011;38515;53.160;6.990;2022-07-09T09:04:45;7.15;;;2.78;;
52620;SDS011;38515;53.160;6.990;2022-07-09T09:07:15;5.22;;;2.67;;
52620;SDS011;38515;53.160;6.990;2022-07-09T09:09:41;8.40;;;2.60;;
52620;SDS011;38515;53.160;6.990;2022-07-09T09:12:08;6.63;;;2.70;;
52620;SDS011;38515;53.160;6.990;2022-07-09T09:14:34;3.65;;;2.17;;
52620;SDS011;38515;53.160;6.990;2022-07-09T09:17:03;7.95;;;2.05;;
52620;SDS011;38515;53.160;6.990;2022-07-09T09:19:31;9.07;;;2.90;;
52620;SDS011;38515;53.160;6.990;2022-07-09T09:21:59;7.93;;;2.75;;
52620;SDS011;38515;53.160;6.990;2022-07-09T09:24:25;2.72;;;1.70;;
52620;SDS011;38515;53.160;6.990;2022-07-09T09:26:55;5.30;;;1.92;;
52620;SDS011;38515;53.160;6.990;2022-07-09T09:29:22;3.88;;;2.03;;
52620;SDS011;38515;53.160;6.990;2022-07-09T09:31:48;2.72;;;1.90;;
52620;SDS011;38515;53.160;6.990;2022-07-09T09:34:15;8.43;;;2.20;;
52620;SDS011;38515;53.160;6.990;2022-07-09T09:36:43;4.82;;;2.28;;
52620;SDS011;38515;53.160;6.990;2022-07-09T09:39:21;15.55;;;3.78;;
52620;SDS011;38515;53.160;6.990;2022-07-09T09:41:50;4.97;;;2.00;;
52620;SDS011;38515;53.160;6.990;2022-07-09T09:44:23;3.28;;;1.88;;
52620;SDS011;38515;53.160;6.990;2022-07-09T09:46:52;5.18;;;2.30;;
52620;SDS011;38515;53.160;6.990;2022-07-09T09:49:19;6.03;;;2.45;;
52620;SDS011;38515;53.160;6.990;2022-07-09T09:54:15;5.95;;;2.30;;
52620;SDS011;38515;53.160;6.990;2022-07-09T09:56:42;5.47;;;2.35;;
52620;SDS011;38515;53.160;6.990;2022-07-09T09:59:10;5.50;;;2.67;;
52620;SDS011;38515;53.160;6.990;2022-07-09T10:01:37;7.72;;;2.25;;
52620;SDS011;38515;53.160;6.990;2022-07-09T10:04:04;10.70;;;2.97;;
52620;SDS011;38515;53.160;6.990;2022-07-09T10:06:32;6.10;;;1.92;;
52620;SDS011;38515;53.160;6.990;2022-07-09T10:09:00;5.32;;;2.15;;
52620;SDS011;38515;53.160;6.990;2022-07-09T10:11:47;6.60;;;2.17;;
52620;SDS011;38515;53.160;6.990;2022-07-09T10:14:15;4.55;;;2.20;;
52620;SDS011;38515;53.160;6.990;2022-07-09T10:16:54;8.63;;;2.30;;
52620;SDS011;38515;53.160;6.990;2022-07-09T10:19:22;6.82;;;2.25;;
52620;SDS011;38515;53.160;6.990;2022-07-09T10:21:52;7.35;;;2.17;;
52620;SDS011;38515;53.160;6.990;2022-07-09T10:24:24;6.63;;;2.70;;
52620;SDS011;38515;53.160;6.990;2022-07-09T10:26:52;4.28;;;2.03;;
52620;SDS011;38515;53.160;6.990;2022-07-09T10:29:27;6.45;;;2.40;;
52620;SDS011;38515;53.160;6.990;2022-07-09T10:31:54;8.90;;;3.10;;
52620;SDS011;38515;53.160;6.990;2022-07-09T10:36:59;9.00;;;2.58;;
52620;SDS011;38515;53.160;6.990;2022-07-09T10:39:29;7.63;;;2.45;;
52620;SDS011;38515;53.160;6.990;2022-07-09T10:42:03;9.10;;;2.83;;
52620;SDS011;38515;53.160;6.990;2022-07-09T10:44:33;5.32;;;2.13;;
52620;SDS011;38515;53.160;6.990;2022-07-09T10:47:01;8.25;;;2.80;;
52620;SDS011;38515;53.160;6.990;2022-07-09T10:49:28;6.13;;;2.72;;
52620;SDS011;38515;53.160;6.990;2022-07-09T10:51:55;12.23;;;3.47;;
52620;SDS011;38515;53.160;6.990;2022-07-09T10:54:22;8.68;;;2.80;;
52620;SDS011;38515;53.160;6.990;2022-07-09T10:56:48;9.18;;;2.55;;
52620;SDS011;38515;53.160;6.990;2022-07-09T10:59:16;12.65;;;3.00;;
52620;SDS011;38515;53.160;6.990;2022-07-09T11:01:43;10.75;;;3.40;;
52620;SDS011;38515;53.160;6.990;2022-07-09T11:04:09;11.02;;;3.53;;
52620;SDS011;38515;53.160;6.990;2022-07-09T11:06:44;8.73;;;3.13;;
52620;SDS011;38515;53.160;6.990;2022-07-09T11:09:12;8.45;;;3.10;;
52620;SDS011;38515;53.160;6.990;2022-07-09T11:11:41;15.07;;;3.72;;
52620;SDS011;38515;53.160;6.990;2022-07-09T11:14:08;9.63;;;3.30;;
52620;SDS011;38515;53.160;6.990;2022-07-09T11:16:35;7.63;;;3.70;;
52620;SDS011;38515;53.160;6.990;2022-07-09T11:19:13;11.35;;;3.33;;
52620;SDS011;38515;53.160;6.990;2022-07-09T11:21:41;16.30;;;3.92;;
52620;SDS011;38515;53.160;6.990;2022-07-09T11:24:13;16.13;;;4.05;;
52620;SDS011;38515;53.160;6.990;2022-07-09T11:26:41;9.20;;;3.65;;
52620;SDS011;38515;53.160;6.990;2022-07-09T11:29:07;15.07;;;3.80;;
52620;SDS011;38515;53.160;6.990;2022-07-09T11:31:35;14.32;;;3.45;;
52620;SDS011;38515;53.160;6.990;2022-07-09T11:34:02;14.77;;;3.22;;
52620;SDS011;38515;53.160;6.990;2022-07-09T11:36:36;11.55;;;3.58;;
52620;SDS011;38515;53.160;6.990;2022-07-09T11:39:03;6.82;;;2.90;;
52620;SDS011;38515;53.160;6.990;2022-07-09T11:41:39;10.30;;;3.08;;
52620;SDS011;38515;53.160;6.990;2022-07-09T11:44:09;5.50;;;2.33;;
52620;SDS011;38515;53.160;6.990;2022-07-09T11:46:39;10.00;;;2.30;;
52620;SDS011;38515;53.160;6.990;2022-07-09T11:49:13;18.75;;;2.67;;
52620;SDS011;38515;53.160;6.990;2022-07-09T11:51:40;8.70;;;2.45;;
52620;SDS011;38515;53.160;6.990;2022-07-09T11:54:08;7.68;;;3.35;;
52620;SDS011;38515;53.160;6.990;2022-07-09T11:56:43;14.02;;;2.85;;
52620;SDS011;38515;53.160;6.990;2022-07-09T11:59:12;9.10;;;2.33;;
52620;SDS011;38515;53.160;6.990;2022-07-09T12:01:38;11.20;;;2.42;;
52620;SDS011;38515;53.160;6.990;2022-07-09T12:04:05;10.75;;;3.03;;
52620;SDS011;38515;53.160;6.990;2022-07-09T12:06:31;8.07;;;2.28;;
52620;SDS011;38515;53.160;6.990;2022-07-09T12:08:58;4.05;;;1.98;;
52620;SDS011;38515;53.160;6.990;2022-07-09T12:11:26;8.02;;;2.05;;
52620;SDS011;38515;53.160;6.990;2022-07-09T12:13:53;6.50;;;2.50;;
52620;SDS011;38515;53.160;6.990;2022-07-09T12:16:18;4.32;;;2.00;;
52620;SDS011;38515;53.160;6.990;2022-07-09T12:18:44;4.80;;;1.95;;
52620;SDS011;38515;53.160;6.990;2022-07-09T12:21:10;5.10;;;1.95;;
52620;SDS011;38515;53.160;6.990;2022-07-09T12:23:36;5.05;;;2.10;;
52620;SDS011;38515;53.160;6.990;2022-07-09T12:26:01;7.18;;;2.67;;
52620;SDS011;38515;53.160;6.990;2022-07-09T12:28:27;6.35;;;2.15;;
52620;SDS011;38515;53.160;6.990;2022-07-09T12:30:53;3.33;;;2.00;;
52620;SDS011;38515;53.160;6.990;2022-07-09T12:33:19;5.78;;;1.85;;
52620;SDS011;38515;53.160;6.990;2022-07-09T12:35:45;5.63;;;3.00;;
52620;SDS011;38515;53.160;6.990;2022-07-09T12:38:10;4.95;;;1.65;;
52620;SDS011;38515;53.160;6.990;2022-07-09T12:40:36;7.10;;;2.40;;
52620;SDS011;38515;53.160;6.990;2022-07-09T12:43:02;8.73;;;2.03;;
52620;SDS011;38515;53.160;6.990;2022-07-09T12:45:28;5.93;;;2.00;;
52620;SDS011;38515;53.160;6.990;2022-07-09T12:47:54;9.75;;;2.17;;
52620;SDS011;38515;53.160;6.990;2022-07-09T12:50:20;8.75;;;2.63;;
52620;SDS011;38515;53.160;6.990;2022-07-09T12:52:45;3.97;;;1.90;;
52620;SDS011;38515;53.160;6.990;2022-07-09T12:55:11;6.88;;;2.88;;
52620;SDS011;38515;53.160;6.990;2022-07-09T12:57:37;5.15;;;1.95;;
52620;SDS011;38515;53.160;6.990;2022-07-09T13:00:04;3.20;;;1.80;;
52620;SDS011;38515;53.160;6.990;2022-07-09T13:02:31;5.22;;;2.45;;
52620;SDS011;38515;53.160;6.990;2022-07-09T13:04:57;5.55;;;1.60;;
52620;SDS011;38515;53.160;6.990;2022-07-09T13:07:23;5.03;;;1.50;;
52620;SDS011;38515;53.160;6.990;2022-07-09T13:09:48;3.97;;;1.90;;
52620;SDS011;38515;53.160;6.990;2022-07-09T13:12:14;5.72;;;1.90;;
52620;SDS011;38515;53.160;6.990;2022-07-09T13:14:40;6.80;;;2.45;;
52620;SDS011;38515;53.160;6.990;2022-07-09T13:17:06;6.80;;;2.17;;
52620;SDS011;38515;53.160;6.990;2022-07-09T13:19:32;3.35;;;1.67;;
52620;SDS011;38515;53.160;6.990;2022-07-09T13:21:58;5.18;;;1.90;;
52620;SDS011;38515;53.160;6.990;2022-07-09T13:24:24;4.18;;;1.48;;
52620;SDS011;38515;53.160;6.990;2022-07-09T13:26:49;3.67;;;1.95;;
52620;SDS011;38515;53.160;6.990;2022-07-09T13:29:15;3.15;;;1.48;;
52620;SDS011;38515;53.160;6.990;2022-07-09T13:31:41;2.72;;;1.17;;
52620;SDS011;38515;53.160;6.990;2022-07-09T13:34:07;3.85;;;1.48;;
52620;SDS011;38515;53.160;6.990;2022-07-09T13:36:32;6.13;;;1.65;;
52620;SDS011;38515;53.160;6.990;2022-07-09T13:38:58;2.40;;;1.23;;
52620;SDS011;38515;53.160;6.990;2022-07-09T13:41:24;5.60;;;1.85;;
52620;SDS011;38515;53.160;6.990;2022-07-09T13:43:50;4.68;;;1.80;;
52620;SDS011;38515;53.160;6.990;2022-07-09T13:46:16;3.25;;;1.50;;
52620;SDS011;38515;53.160;6.990;2022-07-09T13:48:42;4.00;;;2.30;;
52620;SDS011;38515;53.160;6.990;2022-07-09T13:51:08;3.20;;;1.45;;
52620;SDS011;38515;53.160;6.990;2022-07-09T13:53:33;5.30;;;1.90;;
52620;SDS011;38515;53.160;6.990;2022-07-09T13:55:59;5.15;;;1.38;;
52620;SDS011;38515;53.160;6.990;2022-07-09T13:58:25;6.43;;;1.63;;
52620;SDS011;38515;53.160;6.990;2022-07-09T14:00:51;5.45;;;1.70;;
52620;SDS011;38515;53.160;6.990;2022-07-09T14:03:17;4.32;;;1.77;;
52620;SDS011;38515;53.160;6.990;2022-07-09T14:05:43;5.13;;;2.05;;
52620;SDS011;38515;53.160;6.990;2022-07-09T14:08:09;6.07;;;1.58;;
52620;SDS011;38515;53.160;6.990;2022-07-09T14:10:35;6.50;;;1.92;;
52620;SDS011;38515;53.160;6.990;2022-07-09T14:13:01;6.03;;;1.67;;
52620;SDS011;38515;53.160;6.990;2022-07-09T14:15:27;4.05;;;1.60;;
52620;SDS011;38515;53.160;6.990;2022-07-09T14:17:53;9.10;;;2.17;;
52620;SDS011;38515;53.160;6.990;2022-07-09T14:20:19;3.78;;;1.80;;
52620;SDS011;38515;53.160;6.990;2022-07-09T14:22:46;3.83;;;1.90;;
52620;SDS011;38515;53.160;6.990;2022-07-09T14:25:12;8.98;;;2.00;;
52620;SDS011;38515;53.160;6.990;2022-07-09T14:27:38;9.50;;;1.77;;
52620;SDS011;38515;53.160;6.990;2022-07-09T14:30:04;4.38;;;1.92;;
52620;SDS011;38515;53.160;6.990;2022-07-09T14:32:30;6.65;;;2.28;;
52620;SDS011;38515;53.160;6.990;2022-07-09T14:34:56;6.35;;;2.20;;
52620;SDS011;38515;53.160;6.990;2022-07-09T14:37:22;5.35;;;2.20;;
52620;SDS011;38515;53.160;6.990;2022-07-09T14:39:48;5.18;;;2.05;;